sensor_id;sensor_type;location;lat;lon;timestamp;temperature;humidity
33717;DHT22;20046;50.746;7.072;2022-09-17T00:00:39;10.30;99.90
33717;DHT22;20046;50.746;7.072;2022-09-17T00:03:05;10.30;99.90
33717;DHT22;20046;50.746;7.072;2022-09-17T00:05:31;10.30;99.90
33717;DHT22;20046;50.746;7.072;2022-09-17T00:07:56;10.40;99.90
33717;DHT22;20046;50.746;7.072;2022-09-17T00:10:22;10.40;99.90
33717;DHT22;20046;50.746;7.072;2022-09-17T00:12:49;10.40;99.90
33717;DHT22;20046;50.746;7.072;2022-09-17T00:15:15;10.40;99.90
33717;DHT22;20046;50.746;7.072;2022-09-17T00:17:41;10.50;99.90
33717;DHT22;20046;50.746;7.072;2022-09-17T00:20:08;10.50;99.90
33717;DHT22;20046;50.746;7.072;2022-09-17T00:22:35;10.50;99.90
33717;DHT22;20046;50.746;7.072;2022-09-17T00:25:02;10.50;99.90
33717;DHT22;20046;50.746;7.072;2022-09-17T00:27:28;10.50;99.90
33717;DHT22;20046;50.746;7.072;2022-09-17T00:29:54;10.60;99.90
33717;DHT22;20046;50.746;7.072;2022-09-17T00:32:19;10.60;99.90
33717;DHT22;20046;50.746;7.072;2022-09-17T00:34:45;10.60;99.90
33717;DHT22;20046;50.746;7.072;2022-09-17T00:37:11;10.60;99.90
33717;DHT22;20046;50.746;7.072;2022-09-17T00:39:36;10.70;99.90
33717;DHT22;20046;50.746;7.072;2022-09-17T00:42:02;10.70;99.90
33717;DHT22;20046;50.746;7.072;2022-09-17T00:49:42;10.70;99.90
33717;DHT22;20046;50.746;7.072;2022-09-17T00:52:12;10.70;99.90
33717;DHT22;20046;50.746;7.072;2022-09-17T00:54:41;10.70;99.90
33717;DHT22;20046;50.746;7.072;2022-09-17T00:57:09;10.70;99.90
33717;DHT22;20046;50.746;7.072;2022-09-17T00:59:35;10.80;99.90
33717;DHT22;20046;50.746;7.072;2022-09-17T01:02:01;10.80;99.90
33717;DHT22;20046;50.746;7.072;2022-09-17T01:04:27;10.80;99.90
33717;DHT22;20046;50.746;7.072;2022-09-17T01:09:38;10.80;99.90
33717;DHT22;20046;50.746;7.072;2022-09-17T01:12:17;10.80;99.90
33717;DHT22;20046;50.746;7.072;2022-09-17T01:25:45;10.80;99.90
33717;DHT22;20046;50.746;7.072;2022-09-17T01:28:33;10.80;99.90
33717;DHT22;20046;50.746;7.072;2022-09-17T01:37:06;10.90;99.90
33717;DHT22;20046;50.746;7.072;2022-09-17T01:39:51;10.90;99.90
33717;DHT22;20046;50.746;7.072;2022-09-17T01:45:17;10.90;99.90
33717;DHT22;20046;50.746;7.072;2022-09-17T01:47:47;10.90;99.90
33717;DHT22;20046;50.746;7.072;2022-09-17T01:50:21;10.90;99.90
33717;DHT22;20046;50.746;7.072;2022-09-17T01:52:49;10.90;99.90
33717;DHT22;20046;50.746;7.072;2022-09-17T01:55:19;10.90;99.90
33717;DHT22;20046;50.746;7.072;2022-09-17T01:57:52;10.90;99.90
33717;DHT22;20046;50.746;7.072;2022-09-17T02:00:20;10.90;99.90
33717;DHT22;20046;50.746;7.072;2022-09-17T02:03:08;10.90;99.90
33717;DHT22;20046;50.746;7.072;2022-09-17T02:05:40;10.90;99.90
33717;DHT22;20046;50.746;7.072;2022-09-17T02:08:11;10.90;99.90
33717;DHT22;20046;50.746;7.072;2022-09-17T02:10:46;10.90;99.90
33717;DHT22;20046;50.746;7.072;2022-09-17T02:13:21;10.80;99.90
33717;DHT22;20046;50.746;7.072;2022-09-17T02:15:56;10.80;99.90
33717;DHT22;20046;50.746;7.072;2022-09-17T02:18:39;10.80;99.90
33717;DHT22;20046;50.746;7.072;2022-09-17T02:21:14;10.80;99.90
33717;DHT22;20046;50.746;7.072;2022-09-17T02:24:10;10.80;99.90
33717;DHT22;20046;50.746;7.072;2022-09-17T02:26:39;10.80;99.90
33717;DHT22;20046;50.746;7.072;2022-09-17T02:29:18;10.70;99.90
33717;DHT22;20046;50.746;7.072;2022-09-17T02:31:47;10.70;99.90
33717;DHT22;20046;50.746;7.072;2022-09-17T02:34:13;10.70;99.90
33717;DHT22;20046;50.746;7.072;2022-09-17T02:36:39;10.70;99.90
33717;DHT22;20046;50.746;7.072;2022-09-17T02:39:05;10.70;99.90
33717;DHT22;20046;50.746;7.072;2022-09-17T02:41:46;10.70;99.90
33717;DHT22;20046;50.746;7.072;2022-09-17T02:47:30;10.70;99.90
33717;DHT22;20046;50.746;7.072;2022-09-17T02:58:56;10.40;99.90
33717;DHT22;20046;50.746;7.072;2022-09-17T03:01:31;10.40;99.90
33717;DHT22;20046;50.746;7.072;2022-09-17T03:03:58;10.40;99.90
33717;DHT22;20046;50.746;7.072;2022-09-17T03:06:26;10.40;99.90
33717;DHT22;20046;50.746;7.072;2022-09-17T03:08:52;10.40;99.90
33717;DHT22;20046;50.746;7.072;2022-09-17T03:11:18;10.40;99.90
33717;DHT22;20046;50.746;7.072;2022-09-17T03:13:43;10.50;99.90
33717;DHT22;20046;50.746;7.072;2022-09-17T03:16:09;10.50;99.90
33717;DHT22;20046;50.746;7.072;2022-09-17T03:18:35;10.50;99.90
33717;DHT22;20046;50.746;7.072;2022-09-17T03:21:00;10.50;99.90
33717;DHT22;20046;50.746;7.072;2022-09-17T03:23:26;10.60;99.90
33717;DHT22;20046;50.746;7.072;2022-09-17T03:25:52;10.60;99.90
33717;DHT22;20046;50.746;7.072;2022-09-17T03:28:18;10.60;99.90
33717;DHT22;20046;50.746;7.072;2022-09-17T03:30:44;10.70;99.90
33717;DHT22;20046;50.746;7.072;2022-09-17T03:33:09;10.70;99.90
33717;DHT22;20046;50.746;7.072;2022-09-17T03:35:35;10.70;99.90
33717;DHT22;20046;50.746;7.072;2022-09-17T03:38:02;10.70;99.90
33717;DHT22;20046;50.746;7.072;2022-09-17T03:40:27;10.70;99.90
33717;DHT22;20046;50.746;7.072;2022-09-17T03:42:53;10.70;99.90
33717;DHT22;20046;50.746;7.072;2022-09-17T03:45:18;10.70;99.90
33717;DHT22;20046;50.746;7.072;2022-09-17T03:47:44;10.70;99.90
33717;DHT22;20046;50.746;7.072;2022-09-17T03:50:09;10.80;99.90
33717;DHT22;20046;50.746;7.072;2022-09-17T03:52:35;10.80;99.90
33717;DHT22;20046;50.746;7.072;2022-09-17T03:55:02;10.80;99.90
33717;DHT22;20046;50.746;7.072;2022-09-17T03:57:27;10.80;99.90
33717;DHT22;20046;50.746;7.072;2022-09-17T03:59:53;10.80;99.90
33717;DHT22;20046;50.746;7.072;2022-09-17T04:02:18;10.80;99.90
33717;DHT22;20046;50.746;7.072;2022-09-17T04:04:44;10.80;99.90
33717;DHT22;20046;50.746;7.072;2022-09-17T04:07:10;10.80;99.90
33717;DHT22;20046;50.746;7.072;2022-09-17T04:09:35;10.80;99.90
33717;DHT22;20046;50.746;7.072;2022-09-17T04:12:01;10.80;99.90
33717;DHT22;20046;50.746;7.072;2022-09-17T04:14:27;10.80;99.90
33717;DHT22;20046;50.746;7.072;2022-09-17T04:16:52;10.80;99.90
33717;DHT22;20046;50.746;7.072;2022-09-17T04:19:18;10.80;99.90
33717;DHT22;20046;50.746;7.072;2022-09-17T04:21:44;10.80;99.90
33717;DHT22;20046;50.746;7.072;2022-09-17T04:24:09;10.80;99.90
33717;DHT22;20046;50.746;7.072;2022-09-17T04:26:35;10.80;99.90
33717;DHT22;20046;50.746;7.072;2022-09-17T04:29:00;10.80;99.90
33717;DHT22;20046;50.746;7.072;2022-09-17T04:31:26;10.80;99.90
33717;DHT22;20046;50.746;7.072;2022-09-17T04:33:52;10.80;99.90
33717;DHT22;20046;50.746;7.072;2022-09-17T04:36:17;10.90;99.90
33717;DHT22;20046;50.746;7.072;2022-09-17T04:38:43;10.80;99.90
33717;DHT22;20046;50.746;7.072;2022-09-17T04:41:11;10.90;99.90
33717;DHT22;20046;50.746;7.072;2022-09-17T04:43:37;10.80;99.90
33717;DHT22;20046;50.746;7.072;2022-09-17T04:46:03;10.80;99.90
33717;DHT22;20046;50.746;7.072;2022-09-17T04:48:29;10.70;99.90
33717;DHT22;20046;50.746;7.072;2022-09-17T04:50:54;10.70;99.90
33717;DHT22;20046;50.746;7.072;2022-09-17T04:53:20;10.70;99.90
33717;DHT22;20046;50.746;7.072;2022-09-17T04:55:45;10.60;99.90
33717;DHT22;20046;50.746;7.072;2022-09-17T04:58:11;10.60;99.90
33717;DHT22;20046;50.746;7.072;2022-09-17T05:00:37;10.60;99.90
33717;DHT22;20046;50.746;7.072;2022-09-17T05:03:03;10.60;99.90
33717;DHT22;20046;50.746;7.072;2022-09-17T05:05:29;10.60;99.90
33717;DHT22;20046;50.746;7.072;2022-09-17T05:07:54;10.60;99.90
33717;DHT22;20046;50.746;7.072;2022-09-17T05:10:21;10.60;99.90
33717;DHT22;20046;50.746;7.072;2022-09-17T05:12:52;10.60;99.90
33717;DHT22;20046;50.746;7.072;2022-09-17T05:15:18;10.60;99.90
33717;DHT22;20046;50.746;7.072;2022-09-17T05:17:45;10.60;99.90
33717;DHT22;20046;50.746;7.072;2022-09-17T05:20:11;10.60;99.90
33717;DHT22;20046;50.746;7.072;2022-09-17T05:22:44;10.60;99.90
33717;DHT22;20046;50.746;7.072;2022-09-17T05:25:11;10.70;99.90
33717;DHT22;20046;50.746;7.072;2022-09-17T05:27:38;10.70;99.90
33717;DHT22;20046;50.746;7.072;2022-09-17T05:30:04;10.70;99.90
33717;DHT22;20046;50.746;7.072;2022-09-17T05:32:30;10.70;99.90
33717;DHT22;20046;50.746;7.072;2022-09-17T05:34:56;10.70;99.90
33717;DHT22;20046;50.746;7.072;2022-09-17T05:37:21;10.70;99.90
33717;DHT22;20046;50.746;7.072;2022-09-17T05:39:47;10.80;99.90
33717;DHT22;20046;50.746;7.072;2022-09-17T05:42:12;10.80;99.90
33717;DHT22;20046;50.746;7.072;2022-09-17T05:44:38;10.80;99.90
33717;DHT22;20046;50.746;7.072;2022-09-17T05:47:04;10.80;99.90
33717;DHT22;20046;50.746;7.072;2022-09-17T05:49:29;10.90;99.90
33717;DHT22;20046;50.746;7.072;2022-09-17T05:51:55;10.90;99.90
33717;DHT22;20046;50.746;7.072;2022-09-17T05:54:20;10.90;99.90
33717;DHT22;20046;50.746;7.072;2022-09-17T05:56:46;10.90;99.90
33717;DHT22;20046;50.746;7.072;2022-09-17T05:59:11;10.90;99.90
33717;DHT22;20046;50.746;7.072;2022-09-17T06:01:37;10.90;99.90
33717;DHT22;20046;50.746;7.072;2022-09-17T06:04:03;11.00;99.90
33717;DHT22;20046;50.746;7.072;2022-09-17T06:06:29;11.00;99.90
33717;DHT22;20046;50.746;7.072;2022-09-17T06:08:58;11.10;99.90
33717;DHT22;20046;50.746;7.072;2022-09-17T06:11:24;11.10;99.90
33717;DHT22;20046;50.746;7.072;2022-09-17T06:13:54;11.20;99.90
33717;DHT22;20046;50.746;7.072;2022-09-17T06:16:20;11.30;99.90
33717;DHT22;20046;50.746;7.072;2022-09-17T06:18:46;11.40;99.90
33717;DHT22;20046;50.746;7.072;2022-09-17T06:21:14;11.50;99.90
33717;DHT22;20046;50.746;7.072;2022-09-17T06:23:40;11.70;99.90
33717;DHT22;20046;50.746;7.072;2022-09-17T06:26:07;11.80;99.90
33717;DHT22;20046;50.746;7.072;2022-09-17T06:28:33;11.90;99.90
33717;DHT22;20046;50.746;7.072;2022-09-17T06:31:00;12.00;99.90
33717;DHT22;20046;50.746;7.072;2022-09-17T06:33:26;12.00;99.90
33717;DHT22;20046;50.746;7.072;2022-09-17T06:35:56;12.10;99.90
33717;DHT22;20046;50.746;7.072;2022-09-17T06:38:24;12.10;99.90
33717;DHT22;20046;50.746;7.072;2022-09-17T06:40:51;12.20;99.90
33717;DHT22;20046;50.746;7.072;2022-09-17T06:43:17;12.40;99.90
33717;DHT22;20046;50.746;7.072;2022-09-17T06:45:42;12.70;99.90
33717;DHT22;20046;50.746;7.072;2022-09-17T06:48:08;12.80;99.90
33717;DHT22;20046;50.746;7.072;2022-09-17T06:50:33;12.90;99.90
33717;DHT22;20046;50.746;7.072;2022-09-17T06:52:59;12.90;99.90
33717;DHT22;20046;50.746;7.072;2022-09-17T06:55:25;12.90;99.90
33717;DHT22;20046;50.746;7.072;2022-09-17T06:57:50;13.00;99.90
33717;DHT22;20046;50.746;7.072;2022-09-17T07:00:16;13.10;99.90
33717;DHT22;20046;50.746;7.072;2022-09-17T07:02:42;13.30;99.90
33717;DHT22;20046;50.746;7.072;2022-09-17T07:05:07;13.40;99.90
33717;DHT22;20046;50.746;7.072;2022-09-17T07:07:33;13.40;99.90
33717;DHT22;20046;50.746;7.072;2022-09-17T07:10:03;13.50;99.90
33717;DHT22;20046;50.746;7.072;2022-09-17T07:12:29;13.60;99.90
33717;DHT22;20046;50.746;7.072;2022-09-17T07:14:55;13.50;99.90
33717;DHT22;20046;50.746;7.072;2022-09-17T07:17:20;13.40;99.90
33717;DHT22;20046;50.746;7.072;2022-09-17T07:19:46;13.30;99.90
33717;DHT22;20046;50.746;7.072;2022-09-17T07:22:11;13.20;99.90
33717;DHT22;20046;50.746;7.072;2022-09-17T07:24:38;13.20;99.90
33717;DHT22;20046;50.746;7.072;2022-09-17T07:27:04;13.10;99.90
33717;DHT22;20046;50.746;7.072;2022-09-17T07:29:29;13.10;99.90
33717;DHT22;20046;50.746;7.072;2022-09-17T07:31:56;13.10;99.90
33717;DHT22;20046;50.746;7.072;2022-09-17T07:34:24;13.10;99.90
33717;DHT22;20046;50.746;7.072;2022-09-17T07:36:50;13.20;99.90
33717;DHT22;20046;50.746;7.072;2022-09-17T07:39:16;13.20;99.90
33717;DHT22;20046;50.746;7.072;2022-09-17T07:41:42;13.20;99.90
33717;DHT22;20046;50.746;7.072;2022-09-17T07:44:07;13.20;99.90
33717;DHT22;20046;50.746;7.072;2022-09-17T07:46:34;13.20;99.90
33717;DHT22;20046;50.746;7.072;2022-09-17T07:49:00;13.10;99.90
33717;DHT22;20046;50.746;7.072;2022-09-17T07:51:26;13.10;99.90
33717;DHT22;20046;50.746;7.072;2022-09-17T07:53:56;13.10;99.90
33717;DHT22;20046;50.746;7.072;2022-09-17T07:56:23;13.10;99.90
33717;DHT22;20046;50.746;7.072;2022-09-17T07:58:49;13.10;99.90
33717;DHT22;20046;50.746;7.072;2022-09-17T08:01:16;13.00;99.90
33717;DHT22;20046;50.746;7.072;2022-09-17T08:03:46;13.00;99.90
33717;DHT22;20046;50.746;7.072;2022-09-17T08:06:13;13.00;99.90
33717;DHT22;20046;50.746;7.072;2022-09-17T08:08:40;13.10;99.90
33717;DHT22;20046;50.746;7.072;2022-09-17T08:11:10;13.30;99.90
33717;DHT22;20046;50.746;7.072;2022-09-17T08:13:37;13.40;99.90
33717;DHT22;20046;50.746;7.072;2022-09-17T08:16:08;13.50;99.90
33717;DHT22;20046;50.746;7.072;2022-09-17T08:18:34;13.60;99.90
33717;DHT22;20046;50.746;7.072;2022-09-17T08:21:02;13.70;99.90
33717;DHT22;20046;50.746;7.072;2022-09-17T08:23:29;13.80;99.90
33717;DHT22;20046;50.746;7.072;2022-09-17T08:25:56;14.00;99.90
33717;DHT22;20046;50.746;7.072;2022-09-17T08:28:23;14.30;99.90
33717;DHT22;20046;50.746;7.072;2022-09-17T08:30:50;14.50;99.90
33717;DHT22;20046;50.746;7.072;2022-09-17T08:33:16;14.70;99.90
33717;DHT22;20046;50.746;7.072;2022-09-17T08:35:42;14.90;99.90
33717;DHT22;20046;50.746;7.072;2022-09-17T08:38:14;15.20;99.90
33717;DHT22;20046;50.746;7.072;2022-09-17T08:46:10;15.90;99.90
33717;DHT22;20046;50.746;7.072;2022-09-17T08:48:40;16.00;99.90
33717;DHT22;20046;50.746;7.072;2022-09-17T08:56:42;16.00;99.90
33717;DHT22;20046;50.746;7.072;2022-09-17T09:01:56;15.90;99.90
33717;DHT22;20046;50.746;7.072;2022-09-17T09:07:07;16.10;99.90
33717;DHT22;20046;50.746;7.072;2022-09-17T09:09:45;16.10;99.90
33717;DHT22;20046;50.746;7.072;2022-09-17T09:12:20;16.10;99.90
33717;DHT22;20046;50.746;7.072;2022-09-17T09:14:57;16.10;99.90
33717;DHT22;20046;50.746;7.072;2022-09-17T09:17:28;16.00;99.90
33717;DHT22;20046;50.746;7.072;2022-09-17T09:19:56;16.00;99.90
33717;DHT22;20046;50.746;7.072;2022-09-17T09:22:44;15.90;99.90
33717;DHT22;20046;50.746;7.072;2022-09-17T09:25:17;16.10;99.90
33717;DHT22;20046;50.746;7.072;2022-09-17T09:30:51;15.90;99.90
33717;DHT22;20046;50.746;7.072;2022-09-17T09:33:26;15.90;99.90
33717;DHT22;20046;50.746;7.072;2022-09-17T09:35:53;15.80;99.90
33717;DHT22;20046;50.746;7.072;2022-09-17T09:38:45;15.70;99.90
33717;DHT22;20046;50.746;7.072;2022-09-17T09:41:31;15.80;99.90
33717;DHT22;20046;50.746;7.072;2022-09-17T09:44:04;15.80;99.90
33717;DHT22;20046;50.746;7.072;2022-09-17T09:57:00;16.00;99.90
33717;DHT22;20046;50.746;7.072;2022-09-17T09:59:29;16.10;99.90
33717;DHT22;20046;50.746;7.072;2022-09-17T10:01:55;16.30;99.90
33717;DHT22;20046;50.746;7.072;2022-09-17T10:04:23;16.50;99.90
33717;DHT22;20046;50.746;7.072;2022-09-17T10:06:52;16.50;99.90
33717;DHT22;20046;50.746;7.072;2022-09-17T10:09:18;16.50;99.90
33717;DHT22;20046;50.746;7.072;2022-09-17T10:12:18;16.40;99.90
33717;DHT22;20046;50.746;7.072;2022-09-17T10:14:46;16.20;99.90
33717;DHT22;20046;50.746;7.072;2022-09-17T10:17:21;16.20;99.90
33717;DHT22;20046;50.746;7.072;2022-09-17T10:20:15;16.30;99.90
33717;DHT22;20046;50.746;7.072;2022-09-17T10:22:42;16.40;99.90
33717;DHT22;20046;50.746;7.072;2022-09-17T10:25:27;16.40;99.90
33717;DHT22;20046;50.746;7.072;2022-09-17T10:27:54;16.20;99.90
33717;DHT22;20046;50.746;7.072;2022-09-17T10:30:20;16.20;99.90
33717;DHT22;20046;50.746;7.072;2022-09-17T10:33:21;16.50;99.90
33717;DHT22;20046;50.746;7.072;2022-09-17T10:36:00;16.70;99.90
33717;DHT22;20046;50.746;7.072;2022-09-17T10:38:44;16.80;99.90
33717;DHT22;20046;50.746;7.072;2022-09-17T10:41:16;16.90;99.90
33717;DHT22;20046;50.746;7.072;2022-09-17T10:43:42;17.10;99.90
33717;DHT22;20046;50.746;7.072;2022-09-17T10:46:42;17.40;99.90
33717;DHT22;20046;50.746;7.072;2022-09-17T10:51:43;18.50;99.90
33717;DHT22;20046;50.746;7.072;2022-09-17T10:54:14;18.60;99.90
33717;DHT22;20046;50.746;7.072;2022-09-17T10:56:48;18.40;99.60
33717;DHT22;20046;50.746;7.072;2022-09-17T10:59:39;18.00;99.90
33717;DHT22;20046;50.746;7.072;2022-09-17T11:02:33;17.50;99.90
33717;DHT22;20046;50.746;7.072;2022-09-17T11:13:06;18.20;99.90
33717;DHT22;20046;50.746;7.072;2022-09-17T11:26:31;18.80;99.90
33717;DHT22;20046;50.746;7.072;2022-09-17T11:42:11;27.20;77.20
33717;DHT22;20046;50.746;7.072;2022-09-17T11:44:43;28.00;72.70
33717;DHT22;20046;50.746;7.072;2022-09-17T11:47:18;28.50;70.10
33717;DHT22;20046;50.746;7.072;2022-09-17T11:49:51;28.90;68.60
33717;DHT22;20046;50.746;7.072;2022-09-17T11:52:31;28.90;65.30
33717;DHT22;20046;50.746;7.072;2022-09-17T11:57:36;28.20;64.80
33717;DHT22;20046;50.746;7.072;2022-09-17T12:02:46;24.50;68.30
33717;DHT22;20046;50.746;7.072;2022-09-17T12:05:22;22.80;71.40
33717;DHT22;20046;50.746;7.072;2022-09-17T12:08:04;21.30;76.10
33717;DHT22;20046;50.746;7.072;2022-09-17T12:10:40;19.90;82.10
33717;DHT22;20046;50.746;7.072;2022-09-17T12:16:14;17.50;94.50
33717;DHT22;20046;50.746;7.072;2022-09-17T12:21:53;16.20;99.90
33717;DHT22;20046;50.746;7.072;2022-09-17T12:24:25;15.90;99.90
33717;DHT22;20046;50.746;7.072;2022-09-17T12:43:34;21.60;91.10
33717;DHT22;20046;50.746;7.072;2022-09-17T12:52:13;17.90;96.90
33717;DHT22;20046;50.746;7.072;2022-09-17T12:55:41;17.00;98.50
33717;DHT22;20046;50.746;7.072;2022-09-17T13:00:38;18.10;99.90
33717;DHT22;20046;50.746;7.072;2022-09-17T13:06:09;23.00;93.50
33717;DHT22;20046;50.746;7.072;2022-09-17T13:09:02;24.50;89.90
33717;DHT22;20046;50.746;7.072;2022-09-17T13:19:43;28.50;76.30
33717;DHT22;20046;50.746;7.072;2022-09-17T13:22:26;28.90;72.30
33717;DHT22;20046;50.746;7.072;2022-09-17T13:25:06;29.60;69.70
33717;DHT22;20046;50.746;7.072;2022-09-17T13:27:33;30.10;68.70
33717;DHT22;20046;50.746;7.072;2022-09-17T13:30:06;30.30;67.50
33717;DHT22;20046;50.746;7.072;2022-09-17T13:37:56;27.20;68.20
33717;DHT22;20046;50.746;7.072;2022-09-17T13:43:15;27.50;66.40
33717;DHT22;20046;50.746;7.072;2022-09-17T13:48:30;25.40;68.30
33717;DHT22;20046;50.746;7.072;2022-09-17T13:50:57;24.30;69.80
33717;DHT22;20046;50.746;7.072;2022-09-17T13:53:51;24.20;72.50
33717;DHT22;20046;50.746;7.072;2022-09-17T13:56:36;24.70;70.80
33717;DHT22;20046;50.746;7.072;2022-09-17T13:59:08;23.30;72.20
33717;DHT22;20046;50.746;7.072;2022-09-17T14:02:00;21.40;76.20
33717;DHT22;20046;50.746;7.072;2022-09-17T14:07:29;18.40;83.10
33717;DHT22;20046;50.746;7.072;2022-09-17T14:15:32;16.00;89.80
33717;DHT22;20046;50.746;7.072;2022-09-17T14:17:58;15.50;91.50
33717;DHT22;20046;50.746;7.072;2022-09-17T14:20:24;15.30;92.40
33717;DHT22;20046;50.746;7.072;2022-09-17T14:23:00;15.20;93.10
33717;DHT22;20046;50.746;7.072;2022-09-17T14:25:35;15.30;93.60
33717;DHT22;20046;50.746;7.072;2022-09-17T14:28:27;15.40;93.80
33717;DHT22;20046;50.746;7.072;2022-09-17T14:30:54;15.50;94.00
33717;DHT22;20046;50.746;7.072;2022-09-17T14:33:26;17.10;94.10
33717;DHT22;20046;50.746;7.072;2022-09-17T14:36:15;19.00;92.70
33717;DHT22;20046;50.746;7.072;2022-09-17T14:38:46;20.00;91.30
33717;DHT22;20046;50.746;7.072;2022-09-17T14:48:47;20.00;89.80
33717;DHT22;20046;50.746;7.072;2022-09-17T14:53:42;20.00;87.00
33717;DHT22;20046;50.746;7.072;2022-09-17T14:56:14;20.00;87.70
33717;DHT22;20046;50.746;7.072;2022-09-17T14:58:44;19.80;87.60
33717;DHT22;20046;50.746;7.072;2022-09-17T15:01:24;19.50;87.40
33717;DHT22;20046;50.746;7.072;2022-09-17T15:06:41;18.70;89.50
33717;DHT22;20046;50.746;7.072;2022-09-17T15:09:15;18.10;90.40
33717;DHT22;20046;50.746;7.072;2022-09-17T15:11:42;17.50;91.40
33717;DHT22;20046;50.746;7.072;2022-09-17T15:14:37;16.90;94.40
33717;DHT22;20046;50.746;7.072;2022-09-17T15:17:02;16.40;97.80
33717;DHT22;20046;50.746;7.072;2022-09-17T15:19:35;16.00;99.90
33717;DHT22;20046;50.746;7.072;2022-09-17T15:22:08;16.00;99.90
33717;DHT22;20046;50.746;7.072;2022-09-17T15:27:12;15.30;99.90
33717;DHT22;20046;50.746;7.072;2022-09-17T15:29:43;15.00;99.90
33717;DHT22;20046;50.746;7.072;2022-09-17T15:32:13;14.70;99.90
33717;DHT22;20046;50.746;7.072;2022-09-17T15:34:40;14.50;99.90
33717;DHT22;20046;50.746;7.072;2022-09-17T15:37:20;14.30;99.90
33717;DHT22;20046;50.746;7.072;2022-09-17T15:39:51;14.20;99.90
33717;DHT22;20046;50.746;7.072;2022-09-17T15:44:46;13.90;99.90
33717;DHT22;20046;50.746;7.072;2022-09-17T15:47:34;13.70;99.90
33717;DHT22;20046;50.746;7.072;2022-09-17T15:50:12;13.60;99.90
33717;DHT22;20046;50.746;7.072;2022-09-17T15:52:39;13.30;99.90
33717;DHT22;20046;50.746;7.072;2022-09-17T15:55:05;13.10;99.90
33717;DHT22;20046;50.746;7.072;2022-09-17T15:57:31;13.00;99.90
33717;DHT22;20046;50.746;7.072;2022-09-17T16:00:14;12.80;99.90
33717;DHT22;20046;50.746;7.072;2022-09-17T16:02:39;12.60;99.90
33717;DHT22;20046;50.746;7.072;2022-09-17T16:07:46;12.40;99.90
33717;DHT22;20046;50.746;7.072;2022-09-17T16:10:13;12.20;99.90
33717;DHT22;20046;50.746;7.072;2022-09-17T16:12:42;12.20;99.90
33717;DHT22;20046;50.746;7.072;2022-09-17T16:15:09;12.10;99.90
33717;DHT22;20046;50.746;7.072;2022-09-17T16:17:44;12.10;99.90
33717;DHT22;20046;50.746;7.072;2022-09-17T16:20:17;12.10;99.90
33717;DHT22;20046;50.746;7.072;2022-09-17T16:22:44;12.00;99.90
33717;DHT22;20046;50.746;7.072;2022-09-17T16:25:12;12.10;99.90
33717;DHT22;20046;50.746;7.072;2022-09-17T16:27:57;12.10;99.90
33717;DHT22;20046;50.746;7.072;2022-09-17T16:30:23;12.10;99.90
33717;DHT22;20046;50.746;7.072;2022-09-17T16:32:49;12.10;99.90
33717;DHT22;20046;50.746;7.072;2022-09-17T16:35:18;12.00;99.90
33717;DHT22;20046;50.746;7.072;2022-09-17T16:37:48;11.90;99.90
33717;DHT22;20046;50.746;7.072;2022-09-17T16:40:14;11.80;99.90
33717;DHT22;20046;50.746;7.072;2022-09-17T16:42:40;11.70;99.90
33717;DHT22;20046;50.746;7.072;2022-09-17T16:45:06;11.70;99.90
33717;DHT22;20046;50.746;7.072;2022-09-17T16:47:35;11.60;99.90
33717;DHT22;20046;50.746;7.072;2022-09-17T16:50:06;11.50;99.90
33717;DHT22;20046;50.746;7.072;2022-09-17T16:52:32;11.40;99.90
33717;DHT22;20046;50.746;7.072;2022-09-17T16:54:58;11.40;99.90
33717;DHT22;20046;50.746;7.072;2022-09-17T16:57:24;11.30;99.90
33717;DHT22;20046;50.746;7.072;2022-09-17T16:59:49;11.40;99.90
33717;DHT22;20046;50.746;7.072;2022-09-17T17:02:15;11.40;99.90
33717;DHT22;20046;50.746;7.072;2022-09-17T17:04:40;11.40;99.90
33717;DHT22;20046;50.746;7.072;2022-09-17T17:07:06;11.40;99.90
33717;DHT22;20046;50.746;7.072;2022-09-17T17:09:33;11.40;99.90
33717;DHT22;20046;50.746;7.072;2022-09-17T17:11:59;11.30;99.90
33717;DHT22;20046;50.746;7.072;2022-09-17T17:14:25;11.30;99.90
33717;DHT22;20046;50.746;7.072;2022-09-17T17:16:51;11.30;99.90
33717;DHT22;20046;50.746;7.072;2022-09-17T17:19:16;11.20;99.90
33717;DHT22;20046;50.746;7.072;2022-09-17T17:21:42;11.20;99.90
33717;DHT22;20046;50.746;7.072;2022-09-17T17:24:07;11.20;99.90
33717;DHT22;20046;50.746;7.072;2022-09-17T17:26:33;11.10;99.90
33717;DHT22;20046;50.746;7.072;2022-09-17T17:28:59;11.10;99.90
33717;DHT22;20046;50.746;7.072;2022-09-17T17:31:25;11.00;99.90
33717;DHT22;20046;50.746;7.072;2022-09-17T17:33:51;11.00;99.90
33717;DHT22;20046;50.746;7.072;2022-09-17T17:36:16;11.10;99.90
33717;DHT22;20046;50.746;7.072;2022-09-17T17:38:42;11.10;99.90
33717;DHT22;20046;50.746;7.072;2022-09-17T17:41:12;11.00;99.90
33717;DHT22;20046;50.746;7.072;2022-09-17T17:43:39;11.00;99.90
33717;DHT22;20046;50.746;7.072;2022-09-17T17:46:07;11.00;99.90
33717;DHT22;20046;50.746;7.072;2022-09-17T17:48:33;11.00;99.90
33717;DHT22;20046;50.746;7.072;2022-09-17T17:51:07;11.00;99.90
33717;DHT22;20046;50.746;7.072;2022-09-17T17:53:33;10.90;99.90
33717;DHT22;20046;50.746;7.072;2022-09-17T17:56:02;10.90;99.90
33717;DHT22;20046;50.746;7.072;2022-09-17T17:58:28;10.90;99.90
33717;DHT22;20046;50.746;7.072;2022-09-17T18:00:54;10.90;99.90
33717;DHT22;20046;50.746;7.072;2022-09-17T18:03:20;10.90;99.90
33717;DHT22;20046;50.746;7.072;2022-09-17T18:05:53;10.90;99.90
33717;DHT22;20046;50.746;7.072;2022-09-17T18:08:21;10.90;99.90
33717;DHT22;20046;50.746;7.072;2022-09-17T18:10:55;11.00;99.90
33717;DHT22;20046;50.746;7.072;2022-09-17T18:13:22;11.00;99.90
33717;DHT22;20046;50.746;7.072;2022-09-17T18:15:56;11.00;99.90
33717;DHT22;20046;50.746;7.072;2022-09-17T18:18:24;11.00;99.90
33717;DHT22;20046;50.746;7.072;2022-09-17T18:20:50;11.00;99.90
33717;DHT22;20046;50.746;7.072;2022-09-17T18:23:20;11.00;99.90
33717;DHT22;20046;50.746;7.072;2022-09-17T18:25:53;11.00;99.90
33717;DHT22;20046;50.746;7.072;2022-09-17T18:28:20;11.00;99.90
33717;DHT22;20046;50.746;7.072;2022-09-17T18:30:45;11.00;99.90
33717;DHT22;20046;50.746;7.072;2022-09-17T18:33:11;11.10;99.90
33717;DHT22;20046;50.746;7.072;2022-09-17T18:35:37;11.10;99.90
33717;DHT22;20046;50.746;7.072;2022-09-17T18:38:04;11.10;99.90
33717;DHT22;20046;50.746;7.072;2022-09-17T18:40:32;11.00;99.90
33717;DHT22;20046;50.746;7.072;2022-09-17T18:42:58;11.00;99.90
33717;DHT22;20046;50.746;7.072;2022-09-17T18:45:23;11.00;99.90
33717;DHT22;20046;50.746;7.072;2022-09-17T18:47:50;11.00;99.90
33717;DHT22;20046;50.746;7.072;2022-09-17T18:50:16;11.00;99.90
33717;DHT22;20046;50.746;7.072;2022-09-17T18:52:42;11.10;99.90
33717;DHT22;20046;50.746;7.072;2022-09-17T18:55:08;11.10;99.90
33717;DHT22;20046;50.746;7.072;2022-09-17T18:57:33;11.10;99.90